Terminal Aerodrome Forecast
Issued by NWS

Home | Current Version | Previous Version | Text Only | Print | Product List | Glossary On
Versions: 1 2 3 4 5 6 7 8 9 10 11 12 13 14 15
000
FTUS43 KDTX 232320
TAFPTK
TAF
KPTK 232320Z 2400/2424 19014G24KT P6SM -RA BKN008 OVC020
     FM240400 23016G28KT 6SM BR VCSH BKN018 OVC040
     FM241000 20008KT P6SM BKN012 OVC060
     FM241700 21015G25KT P6SM -SHRA BKN020 OVC040=

USA.gov is the U.S. government's official web portal to all federal, state and local government web resources and services.